sensor_id;sensor_type;location;lat;lon;timestamp;temperature;humidity
41437;DHT22;27178;49.460;10.850;2022-10-28T00:01:24;17.20;79.70
41437;DHT22;27178;49.460;10.850;2022-10-28T00:03:56;17.20;79.70
41437;DHT22;27178;49.460;10.850;2022-10-28T00:06:26;17.20;79.70
41437;DHT22;27178;49.460;10.850;2022-10-28T00:08:56;17.20;79.80
41437;DHT22;27178;49.460;10.850;2022-10-28T00:11:27;17.10;79.90
41437;DHT22;27178;49.460;10.850;2022-10-28T00:13:59;17.10;80.20
41437;DHT22;27178;49.460;10.850;2022-10-28T00:16:29;17.10;80.40
41437;DHT22;27178;49.460;10.850;2022-10-28T00:18:58;17.10;80.50
41437;DHT22;27178;49.460;10.850;2022-10-28T00:21:28;17.00;80.50
41437;DHT22;27178;49.460;10.850;2022-10-28T00:23:57;17.00;80.60
41437;DHT22;27178;49.460;10.850;2022-10-28T00:26:27;17.00;80.50
41437;DHT22;27178;49.460;10.850;2022-10-28T00:28:59;17.00;80.70
41437;DHT22;27178;49.460;10.850;2022-10-28T00:31:29;17.00;80.80
41437;DHT22;27178;49.460;10.850;2022-10-28T00:33:58;16.90;80.80
41437;DHT22;27178;49.460;10.850;2022-10-28T00:36:28;16.90;80.90
41437;DHT22;27178;49.460;10.850;2022-10-28T00:38:58;16.90;80.90
41437;DHT22;27178;49.460;10.850;2022-10-28T00:41:29;16.90;81.10
41437;DHT22;27178;49.460;10.850;2022-10-28T00:44:01;16.90;81.30
41437;DHT22;27178;49.460;10.850;2022-10-28T00:46:35;16.90;81.30
41437;DHT22;27178;49.460;10.850;2022-10-28T00:49:12;16.90;81.40
41437;DHT22;27178;49.460;10.850;2022-10-28T00:51:43;16.90;81.40
41437;DHT22;27178;49.460;10.850;2022-10-28T00:54:13;16.90;81.30
41437;DHT22;27178;49.460;10.850;2022-10-28T00:56:45;16.90;81.30
41437;DHT22;27178;49.460;10.850;2022-10-28T00:59:19;16.90;81.50
41437;DHT22;27178;49.460;10.850;2022-10-28T01:01:49;16.90;81.40
41437;DHT22;27178;49.460;10.850;2022-10-28T01:04:17;16.80;81.10
41437;DHT22;27178;49.460;10.850;2022-10-28T01:06:47;16.80;81.20
41437;DHT22;27178;49.460;10.850;2022-10-28T01:09:16;16.80;81.30
41437;DHT22;27178;49.460;10.850;2022-10-28T01:11:53;16.80;81.10
41437;DHT22;27178;49.460;10.850;2022-10-28T01:14:32;16.80;81.40
41437;DHT22;27178;49.460;10.850;2022-10-28T01:17:20;16.80;81.40
41437;DHT22;27178;49.460;10.850;2022-10-28T01:20:21;16.80;81.40
41437;DHT22;27178;49.460;10.850;2022-10-28T01:22:57;16.70;81.50
41437;DHT22;27178;49.460;10.850;2022-10-28T01:29:01;16.70;81.80
41437;DHT22;27178;49.460;10.850;2022-10-28T01:31:42;16.70;81.60
41437;DHT22;27178;49.460;10.850;2022-10-28T01:34:20;16.70;81.60
41437;DHT22;27178;49.460;10.850;2022-10-28T01:36:58;16.70;81.60
41437;DHT22;27178;49.460;10.850;2022-10-28T01:39:32;16.60;81.40
41437;DHT22;27178;49.460;10.850;2022-10-28T01:42:08;16.60;81.60
41437;DHT22;27178;49.460;10.850;2022-10-28T01:44:47;16.60;81.70
41437;DHT22;27178;49.460;10.850;2022-10-28T01:47:21;16.60;81.70
41437;DHT22;27178;49.460;10.850;2022-10-28T01:49:55;16.60;81.70
41437;DHT22;27178;49.460;10.850;2022-10-28T01:52:28;16.60;82.00
41437;DHT22;27178;49.460;10.850;2022-10-28T01:55:01;16.60;82.20
41437;DHT22;27178;49.460;10.850;2022-10-28T01:57:31;16.60;82.50
41437;DHT22;27178;49.460;10.850;2022-10-28T02:00:01;16.60;82.50
41437;DHT22;27178;49.460;10.850;2022-10-28T02:02:32;16.60;82.60
41437;DHT22;27178;49.460;10.850;2022-10-28T02:07:50;16.60;82.30
41437;DHT22;27178;49.460;10.850;2022-10-28T02:10:25;16.10;81.60
41437;DHT22;27178;49.460;10.850;2022-10-28T02:13:03;16.50;82.00
41437;DHT22;27178;49.460;10.850;2022-10-28T02:15:41;16.50;81.90
41437;DHT22;27178;49.460;10.850;2022-10-28T02:18:22;16.50;81.80
41437;DHT22;27178;49.460;10.850;2022-10-28T02:20:56;16.50;81.90
41437;DHT22;27178;49.460;10.850;2022-10-28T02:23:33;16.40;81.60
41437;DHT22;27178;49.460;10.850;2022-10-28T02:26:12;16.40;81.70
41437;DHT22;27178;49.460;10.850;2022-10-28T02:28:49;16.40;81.60
41437;DHT22;27178;49.460;10.850;2022-10-28T02:31:23;16.40;81.80
41437;DHT22;27178;49.460;10.850;2022-10-28T02:33:59;16.30;81.80
41437;DHT22;27178;49.460;10.850;2022-10-28T02:36:32;16.30;81.90
41437;DHT22;27178;49.460;10.850;2022-10-28T02:39:03;16.30;81.80
41437;DHT22;27178;49.460;10.850;2022-10-28T02:41:38;16.30;81.80
41437;DHT22;27178;49.460;10.850;2022-10-28T02:44:09;16.30;81.90
41437;DHT22;27178;49.460;10.850;2022-10-28T02:46:42;16.20;81.80
41437;DHT22;27178;49.460;10.850;2022-10-28T02:49:14;16.20;81.90
41437;DHT22;27178;49.460;10.850;2022-10-28T02:51:45;16.20;82.00
41437;DHT22;27178;49.460;10.850;2022-10-28T02:54:17;16.20;82.10
41437;DHT22;27178;49.460;10.850;2022-10-28T02:56:51;16.20;82.10
41437;DHT22;27178;49.460;10.850;2022-10-28T02:59:23;16.20;82.20
41437;DHT22;27178;49.460;10.850;2022-10-28T03:01:52;16.10;82.30
41437;DHT22;27178;49.460;10.850;2022-10-28T03:04:22;16.10;82.50
41437;DHT22;27178;49.460;10.850;2022-10-28T03:06:50;16.10;82.90
41437;DHT22;27178;49.460;10.850;2022-10-28T03:09:19;16.10;83.10
41437;DHT22;27178;49.460;10.850;2022-10-28T03:11:47;16.20;83.20
41437;DHT22;27178;49.460;10.850;2022-10-28T03:14:15;16.20;83.00
41437;DHT22;27178;49.460;10.850;2022-10-28T03:16:43;16.20;82.90
41437;DHT22;27178;49.460;10.850;2022-10-28T03:19:12;16.20;82.90
41437;DHT22;27178;49.460;10.850;2022-10-28T03:21:42;16.10;82.90
41437;DHT22;27178;49.460;10.850;2022-10-28T03:24:10;16.10;82.50
41437;DHT22;27178;49.460;10.850;2022-10-28T03:26:38;16.10;82.20
41437;DHT22;27178;49.460;10.850;2022-10-28T03:29:07;16.10;82.10
41437;DHT22;27178;49.460;10.850;2022-10-28T03:31:36;16.00;81.80
41437;DHT22;27178;49.460;10.850;2022-10-28T03:34:04;16.00;81.80
41437;DHT22;27178;49.460;10.850;2022-10-28T03:36:33;16.00;81.90
41437;DHT22;27178;49.460;10.850;2022-10-28T03:39:03;16.00;82.00
41437;DHT22;27178;49.460;10.850;2022-10-28T03:41:31;15.90;81.90
41437;DHT22;27178;49.460;10.850;2022-10-28T03:43:59;15.90;82.00
41437;DHT22;27178;49.460;10.850;2022-10-28T03:46:28;15.90;82.20
41437;DHT22;27178;49.460;10.850;2022-10-28T03:49:00;15.80;82.20
41437;DHT22;27178;49.460;10.850;2022-10-28T03:51:29;15.80;82.20
41437;DHT22;27178;49.460;10.850;2022-10-28T03:53:57;15.80;82.30
41437;DHT22;27178;49.460;10.850;2022-10-28T03:56:27;15.80;82.40
41437;DHT22;27178;49.460;10.850;2022-10-28T03:58:56;15.80;82.50
41437;DHT22;27178;49.460;10.850;2022-10-28T04:01:24;15.70;82.50
41437;DHT22;27178;49.460;10.850;2022-10-28T04:03:53;15.70;82.60
41437;DHT22;27178;49.460;10.850;2022-10-28T04:06:21;15.70;82.70
41437;DHT22;27178;49.460;10.850;2022-10-28T04:08:49;15.70;82.70
41437;DHT22;27178;49.460;10.850;2022-10-28T04:11:17;15.70;82.80
41437;DHT22;27178;49.460;10.850;2022-10-28T04:13:47;15.60;82.50
41437;DHT22;27178;49.460;10.850;2022-10-28T04:16:16;15.70;82.70
41437;DHT22;27178;49.460;10.850;2022-10-28T04:18:44;15.70;82.70
41437;DHT22;27178;49.460;10.850;2022-10-28T04:21:12;15.70;82.70
41437;DHT22;27178;49.460;10.850;2022-10-28T04:23:41;15.70;82.70
41437;DHT22;27178;49.460;10.850;2022-10-28T04:26:09;15.70;82.80
41437;DHT22;27178;49.460;10.850;2022-10-28T04:28:37;15.70;82.90
41437;DHT22;27178;49.460;10.850;2022-10-28T04:31:07;15.70;83.10
41437;DHT22;27178;49.460;10.850;2022-10-28T04:33:38;15.70;83.10
41437;DHT22;27178;49.460;10.850;2022-10-28T04:36:07;15.70;83.20
41437;DHT22;27178;49.460;10.850;2022-10-28T04:38:35;15.70;83.30
41437;DHT22;27178;49.460;10.850;2022-10-28T04:41:04;15.70;83.40
41437;DHT22;27178;49.460;10.850;2022-10-28T04:43:32;15.70;83.50
41437;DHT22;27178;49.460;10.850;2022-10-28T04:46:00;15.70;83.50
41437;DHT22;27178;49.460;10.850;2022-10-28T04:48:33;15.70;83.60
41437;DHT22;27178;49.460;10.850;2022-10-28T04:51:02;15.70;83.80
41437;DHT22;27178;49.460;10.850;2022-10-28T04:53:30;15.70;83.70
41437;DHT22;27178;49.460;10.850;2022-10-28T04:55:58;15.70;83.80
41437;DHT22;27178;49.460;10.850;2022-10-28T04:58:27;15.70;83.80
41437;DHT22;27178;49.460;10.850;2022-10-28T05:00:55;15.70;83.80
41437;DHT22;27178;49.460;10.850;2022-10-28T05:03:23;15.70;83.80
41437;DHT22;27178;49.460;10.850;2022-10-28T05:05:53;15.70;83.80
41437;DHT22;27178;49.460;10.850;2022-10-28T05:08:21;15.70;84.00
41437;DHT22;27178;49.460;10.850;2022-10-28T05:10:50;15.70;84.00
41437;DHT22;27178;49.460;10.850;2022-10-28T05:13:18;15.70;84.00
41437;DHT22;27178;49.460;10.850;2022-10-28T05:15:47;15.70;84.10
41437;DHT22;27178;49.460;10.850;2022-10-28T05:18:16;15.70;84.20
41437;DHT22;27178;49.460;10.850;2022-10-28T05:20:44;15.80;84.20
41437;DHT22;27178;49.460;10.850;2022-10-28T05:23:14;15.70;84.10
41437;DHT22;27178;49.460;10.850;2022-10-28T05:25:42;15.70;84.20
41437;DHT22;27178;49.460;10.850;2022-10-28T05:28:10;15.70;84.20
41437;DHT22;27178;49.460;10.850;2022-10-28T05:30:40;15.70;84.40
41437;DHT22;27178;49.460;10.850;2022-10-28T05:33:08;15.70;84.30
41437;DHT22;27178;49.460;10.850;2022-10-28T05:35:37;15.70;84.20
41437;DHT22;27178;49.460;10.850;2022-10-28T05:38:06;15.70;84.20
41437;DHT22;27178;49.460;10.850;2022-10-28T05:40:35;15.70;84.20
41437;DHT22;27178;49.460;10.850;2022-10-28T05:43:04;15.70;84.20
41437;DHT22;27178;49.460;10.850;2022-10-28T05:45:32;15.70;84.50
41437;DHT22;27178;49.460;10.850;2022-10-28T05:48:01;15.70;84.60
41437;DHT22;27178;49.460;10.850;2022-10-28T05:50:29;15.80;84.60
41437;DHT22;27178;49.460;10.850;2022-10-28T05:52:57;15.80;84.50
41437;DHT22;27178;49.460;10.850;2022-10-28T05:55:27;15.80;85.30
41437;DHT22;27178;49.460;10.850;2022-10-28T05:57:59;15.80;84.50
41437;DHT22;27178;49.460;10.850;2022-10-28T06:00:27;15.80;84.50
41437;DHT22;27178;49.460;10.850;2022-10-28T06:03:16;15.80;84.50
41437;DHT22;27178;49.460;10.850;2022-10-28T06:05:44;15.80;84.50
41437;DHT22;27178;49.460;10.850;2022-10-28T06:08:13;15.80;84.40
41437;DHT22;27178;49.460;10.850;2022-10-28T06:10:49;15.80;84.40
41437;DHT22;27178;49.460;10.850;2022-10-28T06:13:24;15.80;84.60
41437;DHT22;27178;49.460;10.850;2022-10-28T06:15:54;15.80;84.50
41437;DHT22;27178;49.460;10.850;2022-10-28T06:18:23;15.80;84.60
41437;DHT22;27178;49.460;10.850;2022-10-28T06:20:53;15.80;84.70
41437;DHT22;27178;49.460;10.850;2022-10-28T06:23:22;15.80;84.80
41437;DHT22;27178;49.460;10.850;2022-10-28T06:25:55;15.80;84.90
41437;DHT22;27178;49.460;10.850;2022-10-28T06:28:26;15.80;85.10
41437;DHT22;27178;49.460;10.850;2022-10-28T06:31:00;15.80;85.30
41437;DHT22;27178;49.460;10.850;2022-10-28T06:33:29;15.80;85.60
41437;DHT22;27178;49.460;10.850;2022-10-28T06:35:59;15.80;85.60
41437;DHT22;27178;49.460;10.850;2022-10-28T06:38:28;15.80;85.70
41437;DHT22;27178;49.460;10.850;2022-10-28T06:40:56;15.80;85.70
41437;DHT22;27178;49.460;10.850;2022-10-28T06:43:27;15.80;85.80
41437;DHT22;27178;49.460;10.850;2022-10-28T06:45:55;15.90;85.90
41437;DHT22;27178;49.460;10.850;2022-10-28T06:48:23;15.90;85.90
41437;DHT22;27178;49.460;10.850;2022-10-28T06:50:53;15.90;85.90
41437;DHT22;27178;49.460;10.850;2022-10-28T06:53:23;15.90;85.80
41437;DHT22;27178;49.460;10.850;2022-10-28T06:55:52;15.90;85.90
41437;DHT22;27178;49.460;10.850;2022-10-28T06:58:20;16.00;85.90
41437;DHT22;27178;49.460;10.850;2022-10-28T07:00:50;16.00;86.00
41437;DHT22;27178;49.460;10.850;2022-10-28T07:03:19;16.00;86.30
41437;DHT22;27178;49.460;10.850;2022-10-28T07:05:48;16.00;86.30
41437;DHT22;27178;49.460;10.850;2022-10-28T07:08:17;16.00;86.40
41437;DHT22;27178;49.460;10.850;2022-10-28T07:10:52;16.10;86.40
41437;DHT22;27178;49.460;10.850;2022-10-28T07:13:22;16.10;86.50
41437;DHT22;27178;49.460;10.850;2022-10-28T07:15:53;16.10;86.40
41437;DHT22;27178;49.460;10.850;2022-10-28T07:18:22;16.20;86.40
41437;DHT22;27178;49.460;10.850;2022-10-28T07:20:51;16.20;86.50
41437;DHT22;27178;49.460;10.850;2022-10-28T07:23:20;16.20;86.50
41437;DHT22;27178;49.460;10.850;2022-10-28T07:25:52;16.20;86.50
41437;DHT22;27178;49.460;10.850;2022-10-28T07:28:20;16.30;86.60
41437;DHT22;27178;49.460;10.850;2022-10-28T07:30:49;16.30;86.40
41437;DHT22;27178;49.460;10.850;2022-10-28T07:33:19;16.30;86.40
41437;DHT22;27178;49.460;10.850;2022-10-28T07:35:47;16.40;86.60
41437;DHT22;27178;49.460;10.850;2022-10-28T07:38:15;16.40;86.60
41437;DHT22;27178;49.460;10.850;2022-10-28T07:40:44;16.40;86.80
41437;DHT22;27178;49.460;10.850;2022-10-28T07:43:13;16.50;87.00
41437;DHT22;27178;49.460;10.850;2022-10-28T07:45:41;16.50;87.00
41437;DHT22;27178;49.460;10.850;2022-10-28T07:48:09;16.50;86.80
41437;DHT22;27178;49.460;10.850;2022-10-28T07:50:40;16.60;86.80
41437;DHT22;27178;49.460;10.850;2022-10-28T07:53:08;16.60;86.80
41437;DHT22;27178;49.460;10.850;2022-10-28T07:55:37;16.70;86.80
41437;DHT22;27178;49.460;10.850;2022-10-28T07:58:05;16.70;86.90
41437;DHT22;27178;49.460;10.850;2022-10-28T08:00:34;16.70;86.80
41437;DHT22;27178;49.460;10.850;2022-10-28T08:03:02;16.70;86.60
41437;DHT22;27178;49.460;10.850;2022-10-28T08:05:30;16.80;86.60
41437;DHT22;27178;49.460;10.850;2022-10-28T08:08:01;16.80;86.50
41437;DHT22;27178;49.460;10.850;2022-10-28T08:10:29;16.90;86.50
41437;DHT22;27178;49.460;10.850;2022-10-28T08:12:58;16.90;86.30
41437;DHT22;27178;49.460;10.850;2022-10-28T08:15:27;17.00;86.30
41437;DHT22;27178;49.460;10.850;2022-10-28T08:17:56;17.00;86.40
41437;DHT22;27178;49.460;10.850;2022-10-28T08:20:24;17.00;86.30
41437;DHT22;27178;49.460;10.850;2022-10-28T08:22:53;17.00;86.40
41437;DHT22;27178;49.460;10.850;2022-10-28T08:25:23;17.10;86.30
41437;DHT22;27178;49.460;10.850;2022-10-28T08:27:52;17.10;86.20
41437;DHT22;27178;49.460;10.850;2022-10-28T08:30:21;17.20;86.20
41437;DHT22;27178;49.460;10.850;2022-10-28T08:32:49;17.20;86.30
41437;DHT22;27178;49.460;10.850;2022-10-28T08:35:18;17.20;86.40
41437;DHT22;27178;49.460;10.850;2022-10-28T08:37:50;17.30;86.40
41437;DHT22;27178;49.460;10.850;2022-10-28T08:40:24;17.30;86.50
41437;DHT22;27178;49.460;10.850;2022-10-28T08:42:59;17.30;86.30
41437;DHT22;27178;49.460;10.850;2022-10-28T08:45:38;17.40;86.20
41437;DHT22;27178;49.460;10.850;2022-10-28T08:48:14;17.40;86.00
41437;DHT22;27178;49.460;10.850;2022-10-28T08:50:49;17.50;86.00
41437;DHT22;27178;49.460;10.850;2022-10-28T08:53:22;17.50;86.00
41437;DHT22;27178;49.460;10.850;2022-10-28T08:55:53;17.50;86.00
41437;DHT22;27178;49.460;10.850;2022-10-28T08:58:26;17.60;86.00
41437;DHT22;27178;49.460;10.850;2022-10-28T09:00:57;17.60;85.60
41437;DHT22;27178;49.460;10.850;2022-10-28T09:03:28;17.60;85.50
41437;DHT22;27178;49.460;10.850;2022-10-28T09:06:03;17.60;85.40
41437;DHT22;27178;49.460;10.850;2022-10-28T09:08:34;17.70;85.40
41437;DHT22;27178;49.460;10.850;2022-10-28T09:14:14;17.70;85.30
41437;DHT22;27178;49.460;10.850;2022-10-28T09:16:47;17.80;85.20
41437;DHT22;27178;49.460;10.850;2022-10-28T09:19:31;17.80;85.10
41437;DHT22;27178;49.460;10.850;2022-10-28T09:22:14;17.90;85.20
41437;DHT22;27178;49.460;10.850;2022-10-28T09:24:51;17.90;85.20
41437;DHT22;27178;49.460;10.850;2022-10-28T09:27:30;18.00;85.20
41437;DHT22;27178;49.460;10.850;2022-10-28T09:30:13;18.00;85.20
41437;DHT22;27178;49.460;10.850;2022-10-28T09:32:51;18.10;85.20
41437;DHT22;27178;49.460;10.850;2022-10-28T09:35:23;18.20;85.00
41437;DHT22;27178;49.460;10.850;2022-10-28T09:37:55;18.30;84.80
41437;DHT22;27178;49.460;10.850;2022-10-28T09:40:28;18.30;84.60
41437;DHT22;27178;49.460;10.850;2022-10-28T09:43:03;18.40;84.60
41437;DHT22;27178;49.460;10.850;2022-10-28T09:45:36;18.40;84.60
41437;DHT22;27178;49.460;10.850;2022-10-28T09:48:16;18.50;84.50
41437;DHT22;27178;49.460;10.850;2022-10-28T09:50:49;18.60;84.10
41437;DHT22;27178;49.460;10.850;2022-10-28T09:53:23;18.60;84.10
41437;DHT22;27178;49.460;10.850;2022-10-28T09:56:00;18.70;84.10
41437;DHT22;27178;49.460;10.850;2022-10-28T09:58:32;18.70;84.10
41437;DHT22;27178;49.460;10.850;2022-10-28T10:01:01;18.80;83.90
41437;DHT22;27178;49.460;10.850;2022-10-28T10:03:30;18.80;83.60
41437;DHT22;27178;49.460;10.850;2022-10-28T10:06:03;18.80;83.40
41437;DHT22;27178;49.460;10.850;2022-10-28T10:08:34;18.90;83.30
41437;DHT22;27178;49.460;10.850;2022-10-28T10:11:06;18.90;83.20
41437;DHT22;27178;49.460;10.850;2022-10-28T10:13:41;18.90;83.00
41437;DHT22;27178;49.460;10.850;2022-10-28T10:16:14;18.90;82.90
41437;DHT22;27178;49.460;10.850;2022-10-28T10:18:48;19.00;83.10
41437;DHT22;27178;49.460;10.850;2022-10-28T10:21:42;19.00;82.90
41437;DHT22;27178;49.460;10.850;2022-10-28T10:24:28;19.10;83.10
41437;DHT22;27178;49.460;10.850;2022-10-28T10:26:58;19.10;83.00
41437;DHT22;27178;49.460;10.850;2022-10-28T10:29:28;19.20;83.20
41437;DHT22;27178;49.460;10.850;2022-10-28T10:32:15;19.20;83.00
41437;DHT22;27178;49.460;10.850;2022-10-28T10:34:51;19.30;82.50
41437;DHT22;27178;49.460;10.850;2022-10-28T10:37:23;19.30;82.70
41437;DHT22;27178;49.460;10.850;2022-10-28T10:40:04;19.30;82.50
41437;DHT22;27178;49.460;10.850;2022-10-28T10:42:33;19.40;82.20
41437;DHT22;27178;49.460;10.850;2022-10-28T10:45:23;19.40;82.20
41437;DHT22;27178;49.460;10.850;2022-10-28T10:48:08;19.50;82.50
41437;DHT22;27178;49.460;10.850;2022-10-28T10:50:38;19.50;82.10
41437;DHT22;27178;49.460;10.850;2022-10-28T10:53:17;19.50;82.20
41437;DHT22;27178;49.460;10.850;2022-10-28T10:55:56;19.60;82.30
41437;DHT22;27178;49.460;10.850;2022-10-28T10:58:28;19.60;82.30
41437;DHT22;27178;49.460;10.850;2022-10-28T11:01:01;19.70;82.30
41437;DHT22;27178;49.460;10.850;2022-10-28T11:03:32;19.80;82.10
41437;DHT22;27178;49.460;10.850;2022-10-28T11:06:04;19.90;82.10
41437;DHT22;27178;49.460;10.850;2022-10-28T11:08:56;19.90;82.00
41437;DHT22;27178;49.460;10.850;2022-10-28T11:11:33;19.90;81.80
41437;DHT22;27178;49.460;10.850;2022-10-28T11:14:03;20.00;81.60
41437;DHT22;27178;49.460;10.850;2022-10-28T11:16:34;20.10;81.70
41437;DHT22;27178;49.460;10.850;2022-10-28T11:19:19;20.10;81.80
41437;DHT22;27178;49.460;10.850;2022-10-28T11:22:15;20.10;81.60
41437;DHT22;27178;49.460;10.850;2022-10-28T11:25:15;20.20;81.70
41437;DHT22;27178;49.460;10.850;2022-10-28T11:27:53;20.30;81.90
41437;DHT22;27178;49.460;10.850;2022-10-28T11:30:36;20.40;82.10
41437;DHT22;27178;49.460;10.850;2022-10-28T11:33:09;20.60;81.90
41437;DHT22;27178;49.460;10.850;2022-10-28T11:36:06;20.70;81.60
41437;DHT22;27178;49.460;10.850;2022-10-28T11:41:39;21.10;80.70
41437;DHT22;27178;49.460;10.850;2022-10-28T11:44:21;21.30;79.80
41437;DHT22;27178;49.460;10.850;2022-10-28T11:46:58;21.40;79.70
41437;DHT22;27178;49.460;10.850;2022-10-28T11:49:45;21.60;79.20
41437;DHT22;27178;49.460;10.850;2022-10-28T11:52:27;21.80;78.40
41437;DHT22;27178;49.460;10.850;2022-10-28T11:55:11;22.00;76.50
41437;DHT22;27178;49.460;10.850;2022-10-28T11:57:51;22.20;76.90
41437;DHT22;27178;49.460;10.850;2022-10-28T12:00:31;22.40;76.80
41437;DHT22;27178;49.460;10.850;2022-10-28T12:03:19;22.50;76.60
41437;DHT22;27178;49.460;10.850;2022-10-28T12:05:54;22.70;75.20
41437;DHT22;27178;49.460;10.850;2022-10-28T12:08:35;22.80;75.90
41437;DHT22;27178;49.460;10.850;2022-10-28T12:11:13;23.00;74.90
41437;DHT22;27178;49.460;10.850;2022-10-28T12:13:50;23.10;74.90
41437;DHT22;27178;49.460;10.850;2022-10-28T12:16:30;23.30;74.50
41437;DHT22;27178;49.460;10.850;2022-10-28T12:19:04;23.50;73.20
41437;DHT22;27178;49.460;10.850;2022-10-28T12:21:39;23.60;73.30
41437;DHT22;27178;49.460;10.850;2022-10-28T12:24:12;23.80;73.10
41437;DHT22;27178;49.460;10.850;2022-10-28T12:26:43;23.90;72.60
41437;DHT22;27178;49.460;10.850;2022-10-28T12:29:18;24.10;72.90
41437;DHT22;27178;49.460;10.850;2022-10-28T12:31:52;24.30;71.40
41437;DHT22;27178;49.460;10.850;2022-10-28T12:34:27;24.30;71.80
41437;DHT22;27178;49.460;10.850;2022-10-28T12:37:03;24.50;70.90
41437;DHT22;27178;49.460;10.850;2022-10-28T12:39:36;24.50;70.30
41437;DHT22;27178;49.460;10.850;2022-10-28T12:42:11;24.50;69.90
41437;DHT22;27178;49.460;10.850;2022-10-28T12:44:42;24.50;69.10
41437;DHT22;27178;49.460;10.850;2022-10-28T12:47:20;24.40;69.00
41437;DHT22;27178;49.460;10.850;2022-10-28T12:50:00;24.30;68.40
41437;DHT22;27178;49.460;10.850;2022-10-28T12:52:37;24.20;68.10
41437;DHT22;27178;49.460;10.850;2022-10-28T12:55:17;24.10;68.60
41437;DHT22;27178;49.460;10.850;2022-10-28T12:57:52;24.00;68.30
41437;DHT22;27178;49.460;10.850;2022-10-28T13:00:27;23.90;68.90
41437;DHT22;27178;49.460;10.850;2022-10-28T13:03:00;23.80;69.60
41437;DHT22;27178;49.460;10.850;2022-10-28T13:05:33;23.80;69.60
41437;DHT22;27178;49.460;10.850;2022-10-28T13:14:34;23.80;69.40
41437;DHT22;27178;49.460;10.850;2022-10-28T13:17:21;23.90;69.70
41437;DHT22;27178;49.460;10.850;2022-10-28T13:20:10;23.90;69.40
41437;DHT22;27178;49.460;10.850;2022-10-28T13:22:53;24.00;70.40
41437;DHT22;27178;49.460;10.850;2022-10-28T13:28:19;24.30;69.50
41437;DHT22;27178;49.460;10.850;2022-10-28T13:30:54;24.50;70.50
41437;DHT22;27178;49.460;10.850;2022-10-28T13:33:26;24.80;69.80
41437;DHT22;27178;49.460;10.850;2022-10-28T13:36:08;24.90;68.60
41437;DHT22;27178;49.460;10.850;2022-10-28T13:38:39;25.10;67.30
41437;DHT22;27178;49.460;10.850;2022-10-28T13:41:26;25.20;67.90
41437;DHT22;27178;49.460;10.850;2022-10-28T13:44:28;25.40;67.10
41437;DHT22;27178;49.460;10.850;2022-10-28T13:53:39;25.90;65.10
41437;DHT22;27178;49.460;10.850;2022-10-28T13:59:25;26.20;64.80
41437;DHT22;27178;49.460;10.850;2022-10-28T14:01:58;26.30;64.80
41437;DHT22;27178;49.460;10.850;2022-10-28T14:04:54;26.40;64.70
41437;DHT22;27178;49.460;10.850;2022-10-28T14:07:26;26.30;63.70
41437;DHT22;27178;49.460;10.850;2022-10-28T14:10:11;26.30;63.90
41437;DHT22;27178;49.460;10.850;2022-10-28T14:12:47;26.30;64.10
41437;DHT22;27178;49.460;10.850;2022-10-28T14:15:20;26.20;64.40
41437;DHT22;27178;49.460;10.850;2022-10-28T14:17:53;26.10;64.40
41437;DHT22;27178;49.460;10.850;2022-10-28T14:20:38;26.10;65.50
41437;DHT22;27178;49.460;10.850;2022-10-28T14:26:13;26.10;64.10
41437;DHT22;27178;49.460;10.850;2022-10-28T14:28:49;26.20;64.90
41437;DHT22;27178;49.460;10.850;2022-10-28T14:40:21;26.40;63.50
41437;DHT22;27178;49.460;10.850;2022-10-28T14:43:04;26.40;63.90
41437;DHT22;27178;49.460;10.850;2022-10-28T14:45:40;26.40;63.40
41437;DHT22;27178;49.460;10.850;2022-10-28T14:48:46;26.40;63.30
41437;DHT22;27178;49.460;10.850;2022-10-28T14:51:17;26.30;62.80
41437;DHT22;27178;49.460;10.850;2022-10-28T14:53:46;26.30;63.20
41437;DHT22;27178;49.460;10.850;2022-10-28T14:56:21;26.10;63.10
41437;DHT22;27178;49.460;10.850;2022-10-28T14:58:53;26.00;62.90
41437;DHT22;27178;49.460;10.850;2022-10-28T15:01:27;25.80;62.80
41437;DHT22;27178;49.460;10.850;2022-10-28T15:03:59;25.60;62.80
41437;DHT22;27178;49.460;10.850;2022-10-28T15:06:33;25.50;63.30
41437;DHT22;27178;49.460;10.850;2022-10-28T15:09:24;25.30;63.30
41437;DHT22;27178;49.460;10.850;2022-10-28T15:11:56;25.20;63.50
41437;DHT22;27178;49.460;10.850;2022-10-28T15:14:33;25.10;64.10
41437;DHT22;27178;49.460;10.850;2022-10-28T15:17:14;24.90;64.20
41437;DHT22;27178;49.460;10.850;2022-10-28T15:19:44;24.80;64.50
41437;DHT22;27178;49.460;10.850;2022-10-28T15:22:18;24.60;64.50
41437;DHT22;27178;49.460;10.850;2022-10-28T15:24:58;24.50;64.60
41437;DHT22;27178;49.460;10.850;2022-10-28T15:27:28;24.40;64.80
41437;DHT22;27178;49.460;10.850;2022-10-28T15:29:59;24.20;65.30
41437;DHT22;27178;49.460;10.850;2022-10-28T15:32:31;24.20;65.50
41437;DHT22;27178;49.460;10.850;2022-10-28T15:38:30;23.90;65.90
41437;DHT22;27178;49.460;10.850;2022-10-28T15:41:00;23.80;66.30
41437;DHT22;27178;49.460;10.850;2022-10-28T15:43:29;23.60;66.30
41437;DHT22;27178;49.460;10.850;2022-10-28T15:46:09;23.50;66.40
41437;DHT22;27178;49.460;10.850;2022-10-28T15:48:38;23.40;66.80
41437;DHT22;27178;49.460;10.850;2022-10-28T15:51:10;23.30;67.00
41437;DHT22;27178;49.460;10.850;2022-10-28T15:53:41;23.30;67.30
41437;DHT22;27178;49.460;10.850;2022-10-28T15:56:18;23.20;67.50
41437;DHT22;27178;49.460;10.850;2022-10-28T15:58:59;23.10;67.80
41437;DHT22;27178;49.460;10.850;2022-10-28T16:01:35;23.00;67.50
41437;DHT22;27178;49.460;10.850;2022-10-28T16:04:39;22.90;67.80
41437;DHT22;27178;49.460;10.850;2022-10-28T16:07:08;22.90;68.20
41437;DHT22;27178;49.460;10.850;2022-10-28T16:09:42;22.80;68.10
41437;DHT22;27178;49.460;10.850;2022-10-28T16:12:14;22.70;68.40
41437;DHT22;27178;49.460;10.850;2022-10-28T16:14:43;22.70;67.80
41437;DHT22;27178;49.460;10.850;2022-10-28T16:17:16;22.60;68.00
41437;DHT22;27178;49.460;10.850;2022-10-28T16:19:49;22.50;68.40
41437;DHT22;27178;49.460;10.850;2022-10-28T16:22:20;22.50;68.90
41437;DHT22;27178;49.460;10.850;2022-10-28T16:24:51;22.40;69.00
41437;DHT22;27178;49.460;10.850;2022-10-28T16:27:21;22.40;69.10
41437;DHT22;27178;49.460;10.850;2022-10-28T16:29:50;22.30;69.10
41437;DHT22;27178;49.460;10.850;2022-10-28T16:32:24;22.30;68.90
41437;DHT22;27178;49.460;10.850;2022-10-28T16:34:55;22.20;70.00
41437;DHT22;27178;49.460;10.850;2022-10-28T16:37:25;22.20;69.30
41437;DHT22;27178;49.460;10.850;2022-10-28T16:39:54;22.10;69.30